createdAt,value
2022-09-23T00:00:54.463Z,4.22
2022-09-23T00:01:56.979Z,5.01
2022-09-23T00:02:59.499Z,4.68
2022-09-23T00:04:01.917Z,4.13
2022-09-23T00:05:04.352Z,5.13
2022-09-23T00:06:07.191Z,4.34
2022-09-23T00:07:09.662Z,4.36
2022-09-23T00:08:12.132Z,4.40
2022-09-23T00:09:14.579Z,4.43
2022-09-23T00:10:17.645Z,4.11
2022-09-23T00:11:20.079Z,4.30
2022-09-23T00:12:22.557Z,4.47
2022-09-23T00:13:24.997Z,4.41
2022-09-23T00:14:27.441Z,4.21
2022-09-23T00:15:29.910Z,5.12
2022-09-23T00:16:32.771Z,4.01
2022-09-23T00:17:35.440Z,4.34
2022-09-23T00:18:37.912Z,4.03
2022-09-23T00:19:40.353Z,4.41
2022-09-23T00:20:43.019Z,4.97
2022-09-23T00:21:45.661Z,4.01
2022-09-23T00:22:48.146Z,3.99
2022-09-23T00:23:50.579Z,4.09
2022-09-23T00:24:53.050Z,4.32
2022-09-23T00:25:55.494Z,4.15
2022-09-23T00:26:58.135Z,3.88
2022-09-23T00:28:00.616Z,3.56
2022-09-23T00:29:03.366Z,4.28
2022-09-23T00:30:06.099Z,3.31
2022-09-23T00:31:08.644Z,3.40
2022-09-23T00:32:11.198Z,3.91
2022-09-23T00:33:13.660Z,3.70
2022-09-23T00:34:16.093Z,3.38
2022-09-23T00:35:18.543Z,3.81
2022-09-23T00:36:21.185Z,4.80
2022-09-23T00:37:23.616Z,3.73
2022-09-23T00:38:26.081Z,3.65
2022-09-23T00:39:28.540Z,4.08
2022-09-23T00:40:31.355Z,4.49
2022-09-23T00:41:33.942Z,3.66
2022-09-23T00:42:36.381Z,3.90
2022-09-23T00:43:38.877Z,4.15
2022-09-23T00:44:41.300Z,4.43
2022-09-23T00:45:43.761Z,3.77
2022-09-23T00:46:46.389Z,3.91
2022-09-23T00:47:48.823Z,3.81
2022-09-23T00:48:51.290Z,4.29
2022-09-23T00:49:53.732Z,3.80
2022-09-23T00:50:56.471Z,3.79
2022-09-23T00:51:58.960Z,4.60
2022-09-23T00:53:01.393Z,3.81
2022-09-23T00:54:03.857Z,3.53
2022-09-23T00:55:06.338Z,4.05
2022-09-23T00:56:09.501Z,3.79
2022-09-23T00:57:11.926Z,4.05
2022-09-23T00:58:14.422Z,4.12
2022-09-23T00:59:16.886Z,3.97
2022-09-23T01:00:19.587Z,3.77
2022-09-23T01:01:22.381Z,4.12
2022-09-23T01:02:25.317Z,3.56
2022-09-23T01:03:27.785Z,3.82
2022-09-23T01:04:30.459Z,4.19
2022-09-23T01:05:33.140Z,3.87
2022-09-23T01:06:35.905Z,4.01
2022-09-23T01:07:38.340Z,3.45
2022-09-23T01:08:40.776Z,3.65
2022-09-23T01:09:43.260Z,3.53
2022-09-23T01:10:45.907Z,3.33
2022-09-23T01:11:48.351Z,3.45
2022-09-23T01:12:50.784Z,3.26
2022-09-23T01:13:53.218Z,3.41
2022-09-23T01:14:55.785Z,3.59
2022-09-23T01:15:58.232Z,3.15
2022-09-23T01:17:01.004Z,2.86
2022-09-23T01:18:03.515Z,4.65
2022-09-23T01:19:05.954Z,2.77
2022-09-23T01:20:09.028Z,3.51
2022-09-23T01:21:11.995Z,2.84
2022-09-23T01:22:14.643Z,3.09
2022-09-23T01:23:17.279Z,3.46
2022-09-23T01:24:19.723Z,3.33
2022-09-23T01:25:22.228Z,4.43
2022-09-23T01:26:24.854Z,3.69
2022-09-23T01:27:27.341Z,3.23
2022-09-23T01:28:29.782Z,2.79
2022-09-23T01:29:32.244Z,3.30
2022-09-23T01:30:34.918Z,3.10
2022-09-23T01:31:37.565Z,3.25
2022-09-23T01:32:40.009Z,3.75
2022-09-23T01:33:42.450Z,3.03
2022-09-23T01:34:44.892Z,3.14
2022-09-23T01:35:47.503Z,2.87
2022-09-23T01:36:50.239Z,3.68
2022-09-23T01:37:52.714Z,3.48
2022-09-23T01:38:55.170Z,3.51
2022-09-23T01:39:57.607Z,3.11
2022-09-23T01:41:00.305Z,3.53
2022-09-23T01:42:02.743Z,3.55
2022-09-23T01:43:05.186Z,3.06
2022-09-23T01:44:07.671Z,3.24
2022-09-23T01:45:10.116Z,3.58
2022-09-23T01:46:13.026Z,3.69
2022-09-23T01:47:15.566Z,3.27
2022-09-23T01:48:18.110Z,3.80
2022-09-23T01:49:20.788Z,3.59
2022-09-23T01:50:23.332Z,3.24
2022-09-23T01:51:25.816Z,3.82
2022-09-23T01:52:28.286Z,3.30
2022-09-23T01:53:30.745Z,3.65
2022-09-23T01:54:33.193Z,3.50
2022-09-23T01:55:35.644Z,3.41
2022-09-23T01:56:38.512Z,3.55
2022-09-23T01:57:40.957Z,3.65
2022-09-23T01:58:43.418Z,3.17
2022-09-23T01:59:45.871Z,3.01
2022-09-23T02:00:48.516Z,2.98
2022-09-23T02:01:51.292Z,3.15
2022-09-23T02:02:53.771Z,3.54
2022-09-23T02:03:56.305Z,3.09
2022-09-23T02:04:58.785Z,4.19
2022-09-23T02:06:01.202Z,2.76
2022-09-23T02:07:03.679Z,3.25
2022-09-23T02:08:06.121Z,3.67
2022-09-23T02:09:08.606Z,4.71
2022-09-23T02:10:11.626Z,3.98
2022-09-23T02:11:14.098Z,3.57
2022-09-23T02:12:16.583Z,3.63
2022-09-23T02:13:19.030Z,3.98
2022-09-23T02:14:21.510Z,3.71
2022-09-23T02:15:23.948Z,3.40
2022-09-23T02:16:26.759Z,3.85
2022-09-23T02:17:29.300Z,3.61
2022-09-23T02:18:31.769Z,3.52
2022-09-23T02:19:34.216Z,3.57
2022-09-23T02:20:36.771Z,3.00
2022-09-23T02:21:39.410Z,3.51
2022-09-23T02:22:42.209Z,3.56
2022-09-23T02:23:44.656Z,3.77
2022-09-23T02:24:47.111Z,3.95
2022-09-23T02:25:49.557Z,3.78
2022-09-23T02:26:52.247Z,3.62
2022-09-23T02:27:54.722Z,4.31
2022-09-23T02:28:57.186Z,3.35
2022-09-23T02:29:59.632Z,4.02
2022-09-23T02:31:02.282Z,3.79
2022-09-23T02:32:04.968Z,4.92
2022-09-23T02:33:07.740Z,4.38
2022-09-23T02:34:10.161Z,3.63
2022-09-23T02:35:12.606Z,4.73
2022-09-23T02:36:15.861Z,3.94
2022-09-23T02:37:18.306Z,4.39
2022-09-23T02:38:20.776Z,4.79
2022-09-23T02:39:23.223Z,5.01
2022-09-23T02:40:25.754Z,5.01
2022-09-23T02:41:28.667Z,5.76
2022-09-23T02:42:31.109Z,5.34
2022-09-23T02:43:33.621Z,5.10
2022-09-23T02:44:36.067Z,5.96
2022-09-23T02:45:38.543Z,5.50
2022-09-23T02:46:41.064Z,6.13
2022-09-23T02:47:43.564Z,6.37
2022-09-23T02:48:46.134Z,6.23
2022-09-23T02:49:48.565Z,7.01
2022-09-23T02:50:51.415Z,6.78
2022-09-23T02:51:53.861Z,6.81
2022-09-23T02:52:56.345Z,6.48
2022-09-23T02:53:58.877Z,6.13
2022-09-23T02:55:01.384Z,7.03
2022-09-23T02:56:04.146Z,7.29
2022-09-23T02:57:06.595Z,6.66
2022-09-23T02:58:09.154Z,6.32
2022-09-23T02:59:11.670Z,5.99
2022-09-23T03:00:14.831Z,7.79
2022-09-23T03:01:17.466Z,6.46
2022-09-23T03:02:20.930Z,5.95
2022-09-23T03:03:23.551Z,5.63
2022-09-23T03:04:26.020Z,5.55
2022-09-23T03:05:28.462Z,6.03
2022-09-23T03:06:31.099Z,5.60
2022-09-23T03:07:33.544Z,5.96
2022-09-23T03:08:35.981Z,6.17
2022-09-23T03:09:38.481Z,5.66
2022-09-23T03:10:41.241Z,6.79
2022-09-23T03:11:43.700Z,10.36
2022-09-23T03:12:46.170Z,9.40
2022-09-23T03:13:48.612Z,9.64
2022-09-23T03:14:51.100Z,11.61
2022-09-23T03:15:53.576Z,9.45
2022-09-23T03:16:56.025Z,7.64
2022-09-23T03:17:58.473Z,6.94
2022-09-23T03:19:00.913Z,7.22
2022-09-23T03:20:03.699Z,5.68
2022-09-23T03:21:06.129Z,5.33
2022-09-23T03:22:08.572Z,5.31
2022-09-23T03:23:11.141Z,5.21
2022-09-23T03:24:13.586Z,5.23
2022-09-23T03:25:16.067Z,4.37
2022-09-23T03:26:19.112Z,4.38
2022-09-23T03:27:21.565Z,4.39
2022-09-23T03:28:24.003Z,4.63
2022-09-23T03:29:26.482Z,4.45
2022-09-23T03:30:29.215Z,5.15
2022-09-23T03:31:31.716Z,5.33
2022-09-23T03:32:34.198Z,5.07
2022-09-23T03:33:36.629Z,5.51
2022-09-23T03:34:39.084Z,5.71
2022-09-23T03:35:41.610Z,4.85
2022-09-23T03:36:44.257Z,4.23
2022-09-23T03:37:46.717Z,7.59
2022-09-23T03:38:49.144Z,12.10
2022-09-23T03:39:51.591Z,10.31
2022-09-23T03:40:54.135Z,5.62
2022-09-23T03:41:57.059Z,9.20
2022-09-23T03:42:59.510Z,8.79
2022-09-23T03:44:01.945Z,6.29
2022-09-23T03:45:04.491Z,4.91
2022-09-23T03:46:07.451Z,5.33
2022-09-23T03:47:10.035Z,4.79
2022-09-23T03:48:12.483Z,5.41
2022-09-23T03:49:15.162Z,4.05
2022-09-23T03:50:18.010Z,4.22
2022-09-23T03:51:20.519Z,4.09
2022-09-23T03:52:22.952Z,4.20
2022-09-23T03:53:25.391Z,4.29
2022-09-23T03:54:27.819Z,4.63
2022-09-23T03:55:30.268Z,4.39
2022-09-23T03:56:33.192Z,4.92
2022-09-23T03:57:35.656Z,4.46
2022-09-23T03:58:38.150Z,4.46
2022-09-23T03:59:40.637Z,4.34
2022-09-23T04:00:43.257Z,4.32
2022-09-23T04:01:46.008Z,4.79
2022-09-23T04:02:48.918Z,5.09
2022-09-23T04:03:51.365Z,4.75
2022-09-23T04:04:53.834Z,6.37
2022-09-23T04:05:56.454Z,5.73
2022-09-23T04:06:59.276Z,5.59
2022-09-23T04:08:01.731Z,5.72
2022-09-23T04:09:04.208Z,5.32
2022-09-23T04:10:06.984Z,5.29
2022-09-23T04:11:09.430Z,4.97
2022-09-23T04:12:12.015Z,4.23
2022-09-23T04:13:14.577Z,4.78
2022-09-23T04:14:17.054Z,4.66
2022-09-23T04:15:19.500Z,4.72
2022-09-23T04:16:22.466Z,4.62
2022-09-23T04:17:25.088Z,4.31
2022-09-23T04:18:27.547Z,3.97
2022-09-23T04:19:29.997Z,4.67
2022-09-23T04:20:32.756Z,4.30
2022-09-23T04:21:35.314Z,4.69
2022-09-23T04:22:37.827Z,4.74
2022-09-23T04:23:40.307Z,5.56
2022-09-23T04:24:42.781Z,4.65
2022-09-23T04:25:45.408Z,4.31
2022-09-23T04:26:48.073Z,4.57
2022-09-23T04:27:50.637Z,4.77
2022-09-23T04:28:53.083Z,5.37
2022-09-23T04:29:55.587Z,5.14
2022-09-23T04:30:58.156Z,5.41
2022-09-23T04:32:00.701Z,5.92
2022-09-23T04:33:03.210Z,4.71
2022-09-23T04:34:05.681Z,5.58
2022-09-23T04:35:08.143Z,4.91
2022-09-23T04:36:11.188Z,7.06
2022-09-23T04:37:13.660Z,10.48
2022-09-23T04:38:16.194Z,7.16
2022-09-23T04:39:18.639Z,7.51
2022-09-23T04:40:21.367Z,6.18
2022-09-23T04:41:23.881Z,7.27
2022-09-23T04:42:26.691Z,5.62
2022-09-23T04:43:29.211Z,5.01
2022-09-23T04:44:31.725Z,6.27
2022-09-23T04:45:34.186Z,4.81
2022-09-23T04:46:36.838Z,4.57
2022-09-23T04:47:39.427Z,4.63
2022-09-23T04:48:42.028Z,4.52
2022-09-23T04:49:44.518Z,4.29
2022-09-23T04:50:47.374Z,4.57
2022-09-23T04:51:49.842Z,5.27
2022-09-23T04:52:52.340Z,4.36
2022-09-23T04:53:54.857Z,4.56
2022-09-23T04:54:57.354Z,3.86
2022-09-23T04:55:59.800Z,4.37
2022-09-23T04:57:02.256Z,3.97
2022-09-23T04:58:04.799Z,3.87
2022-09-23T04:59:07.407Z,3.55
2022-09-23T05:00:10.469Z,3.89
2022-09-23T05:01:12.995Z,3.78
2022-09-23T05:02:15.536Z,4.39
2022-09-23T05:03:18.052Z,3.95
2022-09-23T05:04:20.572Z,4.01
2022-09-23T05:05:23.005Z,4.11
2022-09-23T05:06:25.819Z,3.76
2022-09-23T05:07:28.709Z,3.86
2022-09-23T05:08:31.178Z,3.93
2022-09-23T05:09:33.745Z,4.81
2022-09-23T05:10:36.548Z,4.71
2022-09-23T05:11:39.018Z,3.75
2022-09-23T05:12:41.467Z,4.14
2022-09-23T05:13:43.938Z,4.25
2022-09-23T05:14:46.424Z,5.58
2022-09-23T05:15:48.966Z,4.83
2022-09-23T05:16:51.966Z,5.94
2022-09-23T05:17:54.436Z,4.35
2022-09-23T05:18:56.909Z,4.02
2022-09-23T05:19:59.432Z,3.89
2022-09-23T05:21:02.001Z,5.69
2022-09-23T05:22:04.668Z,4.31
2022-09-23T05:23:07.130Z,4.09
2022-09-23T05:24:09.574Z,3.96
2022-09-23T05:25:12.053Z,3.36
2022-09-23T05:26:15.918Z,6.04
2022-09-23T05:27:18.365Z,7.55
2022-09-23T05:28:20.839Z,5.33
2022-09-23T05:29:23.633Z,4.45
2022-09-23T05:30:27.121Z,4.79
2022-09-23T05:31:29.825Z,5.11
2022-09-23T05:32:32.548Z,4.49
2022-09-23T05:33:35.033Z,5.42
2022-09-23T05:34:37.490Z,4.98
2022-09-23T05:35:39.972Z,5.01
2022-09-23T05:36:42.693Z,4.92
2022-09-23T05:37:45.169Z,5.79
2022-09-23T05:38:47.644Z,4.81
2022-09-23T05:39:50.209Z,4.51
2022-09-23T05:40:52.784Z,5.13
2022-09-23T05:41:55.368Z,4.15
2022-09-23T05:42:57.835Z,5.67
2022-09-23T05:44:00.278Z,4.45
2022-09-23T05:45:02.755Z,4.82
2022-09-23T05:46:08.133Z,4.59
2022-09-23T05:47:09.896Z,4.20
2022-09-23T05:48:12.489Z,4.29
2022-09-23T05:49:15.016Z,3.67
2022-09-23T05:50:18.616Z,3.92
2022-09-23T05:51:21.368Z,4.21
2022-09-23T05:52:23.855Z,4.20
2022-09-23T05:53:26.329Z,4.64
2022-09-23T05:54:28.812Z,4.75
2022-09-23T05:55:31.253Z,4.65
2022-09-23T05:56:33.951Z,4.49
2022-09-23T05:57:36.397Z,4.55
2022-09-23T05:58:38.876Z,4.09
2022-09-23T05:59:41.366Z,4.33
2022-09-23T06:00:44.019Z,4.61
2022-09-23T06:01:46.743Z,3.92
2022-09-23T06:02:49.404Z,4.08
2022-09-23T06:03:51.998Z,4.87
2022-09-23T06:04:54.455Z,4.37
2022-09-23T06:05:56.928Z,4.73
2022-09-23T06:07:03.240Z,4.83
2022-09-23T06:08:04.257Z,4.91
2022-09-23T06:09:06.870Z,4.84
2022-09-23T06:10:10.214Z,5.11
2022-09-23T06:11:12.823Z,7.19
2022-09-23T06:12:15.321Z,5.31
2022-09-23T06:13:17.823Z,7.73
2022-09-23T06:14:20.581Z,5.57
2022-09-23T06:15:23.120Z,4.75
2022-09-23T06:16:25.981Z,4.28
2022-09-23T06:17:28.579Z,4.83
2022-09-23T06:18:31.051Z,4.12
2022-09-23T06:19:33.532Z,5.01
2022-09-23T06:20:36.310Z,4.62
2022-09-23T06:21:38.756Z,4.37
2022-09-23T06:22:41.380Z,4.84
2022-09-23T06:23:44.003Z,5.14
2022-09-23T06:24:46.477Z,4.87
2022-09-23T06:25:48.926Z,4.66
2022-09-23T06:26:51.706Z,4.76
2022-09-23T06:27:54.280Z,5.51
2022-09-23T06:28:56.871Z,4.51
2022-09-23T06:29:59.325Z,4.83
2022-09-23T06:31:02.053Z,5.04
2022-09-23T06:32:04.575Z,5.17
2022-09-23T06:33:07.106Z,5.49
2022-09-23T06:34:12.914Z,4.70
2022-09-23T06:35:24.649Z,4.63
2022-09-23T06:36:35.384Z,4.82
2022-09-23T06:37:23.693Z,4.76
2022-09-23T06:38:26.192Z,5.68
2022-09-23T06:39:28.665Z,4.69
2022-09-23T06:40:32.976Z,4.81
2022-09-23T06:41:35.507Z,5.09
2022-09-23T06:42:38.247Z,4.79
2022-09-23T06:43:41.111Z,4.69
2022-09-23T06:44:43.581Z,5.00
2022-09-23T06:45:46.269Z,4.89
2022-09-23T06:46:49.489Z,4.75
2022-09-23T06:47:51.958Z,4.15
2022-09-23T06:48:54.450Z,4.55
2022-09-23T06:49:57.233Z,4.56
2022-09-23T06:51:00.124Z,4.92
2022-09-23T06:52:02.601Z,4.75
2022-09-23T06:53:05.086Z,5.14
2022-09-23T06:54:07.718Z,4.40
2022-09-23T06:55:10.499Z,4.40
2022-09-23T06:56:13.835Z,4.83
2022-09-23T06:57:16.288Z,4.33
2022-09-23T06:58:18.769Z,4.33
2022-09-23T06:59:21.479Z,5.35
2022-09-23T07:00:24.136Z,4.39
2022-09-23T07:01:26.924Z,4.34
2022-09-23T07:02:30.304Z,4.47
2022-09-23T07:03:33.058Z,4.99
2022-09-23T07:04:35.583Z,5.13
2022-09-23T07:05:38.038Z,4.31
2022-09-23T07:06:40.929Z,3.99
2022-09-23T07:07:43.450Z,3.63
2022-09-23T07:08:45.921Z,4.03
2022-09-23T07:09:48.432Z,3.66
2022-09-23T07:10:51.192Z,3.73
2022-09-23T07:11:53.642Z,2.73
2022-09-23T07:12:56.127Z,3.41
2022-09-23T07:13:58.649Z,3.19
2022-09-23T07:15:01.179Z,3.73
2022-09-23T07:16:04.034Z,3.53
2022-09-23T07:17:06.557Z,5.23
2022-09-23T07:18:09.858Z,2.85
2022-09-23T07:19:12.472Z,3.55
2022-09-23T07:20:15.782Z,3.17
2022-09-23T07:21:19.073Z,3.27
2022-09-23T07:22:21.571Z,3.40
2022-09-23T07:23:24.021Z,3.41
2022-09-23T07:24:26.470Z,3.13
2022-09-23T07:25:28.999Z,3.17
2022-09-23T07:26:31.809Z,3.16
2022-09-23T07:27:34.290Z,3.29
2022-09-23T07:28:36.834Z,2.77
2022-09-23T07:29:48.200Z,3.03
2022-09-23T07:30:55.731Z,3.01
2022-09-23T07:31:48.553Z,3.03
2022-09-23T07:32:51.126Z,3.07
2022-09-23T07:33:53.644Z,3.00
2022-09-23T07:34:56.101Z,3.04
2022-09-23T07:35:58.717Z,3.42
2022-09-23T07:37:01.575Z,2.67
2022-09-23T07:38:04.068Z,3.07
2022-09-23T07:39:06.544Z,2.57
2022-09-23T07:40:09.633Z,2.39
2022-09-23T07:41:12.326Z,2.71
2022-09-23T07:42:14.908Z,2.83
2022-09-23T07:43:17.414Z,2.79
2022-09-23T07:44:19.918Z,2.89
2022-09-23T07:45:22.370Z,2.99
2022-09-23T07:46:24.999Z,2.62
2022-09-23T07:47:27.838Z,2.77
2022-09-23T07:48:34.158Z,2.61
2022-09-23T07:49:34.707Z,2.92
2022-09-23T07:50:37.535Z,3.36
2022-09-23T07:51:40.024Z,2.73
2022-09-23T07:52:42.481Z,3.15
2022-09-23T07:53:44.960Z,2.89
2022-09-23T07:54:47.434Z,2.55
2022-09-23T07:55:50.009Z,2.45
2022-09-23T07:56:52.757Z,2.28
2022-09-23T07:57:55.220Z,1.98
2022-09-23T07:58:57.694Z,2.45
2022-09-23T08:00:00.145Z,3.05
2022-09-23T08:01:02.742Z,3.18
2022-09-23T08:02:05.238Z,2.99
2022-09-23T08:03:07.772Z,2.42
2022-09-23T08:04:10.330Z,3.31
2022-09-23T08:05:12.781Z,2.87
2022-09-23T08:06:15.768Z,2.70
2022-09-23T08:07:18.344Z,2.63
2022-09-23T08:08:20.799Z,2.47
2022-09-23T08:09:23.269Z,1.95
2022-09-23T08:10:26.040Z,2.33
2022-09-23T08:11:28.725Z,2.29
2022-09-23T08:12:31.327Z,3.89
2022-09-23T08:13:33.838Z,3.21
2022-09-23T08:14:36.293Z,2.05
2022-09-23T08:15:38.814Z,1.61
2022-09-23T08:16:41.458Z,2.51
2022-09-23T08:17:45.288Z,2.24
2022-09-23T08:18:47.775Z,1.66
2022-09-23T08:19:50.454Z,2.31
2022-09-23T08:20:53.040Z,1.89
2022-09-23T08:21:55.531Z,2.29
2022-09-23T08:22:58.030Z,2.05
2022-09-23T08:24:00.610Z,1.79
2022-09-23T08:25:03.202Z,1.67
2022-09-23T08:26:08.497Z,1.71
2022-09-23T08:27:10.517Z,1.61
2022-09-23T08:28:12.997Z,1.73
2022-09-23T08:29:15.549Z,1.69
2022-09-23T08:30:18.937Z,1.09
2022-09-23T08:31:21.439Z,1.67
2022-09-23T08:32:23.993Z,1.62
2022-09-23T08:33:26.507Z,1.45
2022-09-23T08:34:28.960Z,1.82
2022-09-23T08:35:31.430Z,1.55
2022-09-23T08:36:34.055Z,1.59
2022-09-23T08:37:36.662Z,1.57
2022-09-23T08:38:39.449Z,1.42
2022-09-23T08:39:41.923Z,1.91
2022-09-23T08:40:44.738Z,1.79
2022-09-23T08:41:47.251Z,1.68
2022-09-23T08:42:49.707Z,1.53
2022-09-23T08:43:52.225Z,1.75
2022-09-23T08:44:54.690Z,1.57
2022-09-23T08:45:57.209Z,2.59
2022-09-23T08:46:59.829Z,1.30
2022-09-23T08:48:02.334Z,1.43
2022-09-23T08:49:04.834Z,1.39
2022-09-23T08:50:07.452Z,1.45
2022-09-23T08:51:09.924Z,1.69
2022-09-23T08:52:12.402Z,1.31
2022-09-23T08:53:14.894Z,1.62
2022-09-23T08:54:17.441Z,2.00
2022-09-23T08:55:19.899Z,1.81
2022-09-23T08:56:22.684Z,2.11
2022-09-23T08:57:25.135Z,1.77
2022-09-23T08:58:27.623Z,2.24
2022-09-23T08:59:30.207Z,1.65
2022-09-23T09:00:32.992Z,1.83
2022-09-23T09:01:35.514Z,1.89
2022-09-23T09:02:38.060Z,1.80
2022-09-23T09:03:40.595Z,1.30
2022-09-23T09:04:43.102Z,1.38
2022-09-23T09:05:53.945Z,1.29
2022-09-23T09:06:53.906Z,1.36
2022-09-23T09:07:54.646Z,1.56
2022-09-23T09:08:57.098Z,1.53
2022-09-23T09:09:59.590Z,1.31
2022-09-23T09:11:02.041Z,1.38
2022-09-23T09:12:04.505Z,4.64
2022-09-23T09:13:06.951Z,1.24
2022-09-23T09:14:09.439Z,1.25
2022-09-23T09:15:11.947Z,1.21
2022-09-23T09:16:14.880Z,1.17
2022-09-23T09:17:17.418Z,1.29
2022-09-23T09:18:19.950Z,1.25
2022-09-23T09:19:22.483Z,1.40
2022-09-23T09:20:25.259Z,1.35
2022-09-23T09:21:27.739Z,1.55
2022-09-23T09:22:30.245Z,1.35
2022-09-23T09:23:32.982Z,1.29
2022-09-23T09:24:35.435Z,1.55
2022-09-23T09:25:37.942Z,1.73
2022-09-23T09:26:40.649Z,1.45
2022-09-23T09:27:43.085Z,1.51
2022-09-23T09:28:45.555Z,1.54
2022-09-23T09:29:50.062Z,1.53
2022-09-23T09:30:52.597Z,1.85
2022-09-23T09:31:55.264Z,2.11
2022-09-23T09:32:57.741Z,1.84
2022-09-23T09:34:00.184Z,1.75
2022-09-23T09:35:02.834Z,1.85
2022-09-23T09:36:05.526Z,3.09
2022-09-23T09:37:08.015Z,2.97
2022-09-23T09:38:10.484Z,1.73
2022-09-23T09:39:12.973Z,2.21
2022-09-23T09:40:16.000Z,2.12
2022-09-23T09:41:18.622Z,1.77
2022-09-23T09:42:21.079Z,2.10
2022-09-23T09:43:23.748Z,1.93
2022-09-23T09:44:26.263Z,4.87
2022-09-23T09:45:28.931Z,2.83
2022-09-23T09:46:31.669Z,1.89
2022-09-23T09:47:34.184Z,2.31
2022-09-23T09:48:36.659Z,1.98
2022-09-23T09:49:40.679Z,1.93
2022-09-23T09:50:43.579Z,2.16
2022-09-23T09:51:46.447Z,2.04
2022-09-23T09:52:48.866Z,2.05
2022-09-23T09:53:51.338Z,1.81
2022-09-23T09:54:53.838Z,2.09
2022-09-23T09:55:58.031Z,2.50
2022-09-23T09:57:00.849Z,1.88
2022-09-23T09:58:03.308Z,2.71
2022-09-23T09:59:05.824Z,1.93
2022-09-23T10:00:09.041Z,2.09
2022-09-23T10:01:11.543Z,2.02
2022-09-23T10:02:14.534Z,1.66
2022-09-23T10:03:16.988Z,2.34
2022-09-23T10:04:19.486Z,2.28
2022-09-23T10:05:21.990Z,2.61
2022-09-23T10:06:24.824Z,3.59
2022-09-23T10:07:27.296Z,2.13
2022-09-23T10:08:29.774Z,2.41
2022-09-23T10:09:32.320Z,2.69
2022-09-23T10:10:35.124Z,3.06
2022-09-23T10:11:37.854Z,2.01
2022-09-23T10:12:40.376Z,2.15
2022-09-23T10:13:42.832Z,1.91
2022-09-23T10:14:45.307Z,1.88
2022-09-23T10:15:47.756Z,2.15
2022-09-23T10:16:50.560Z,1.72
2022-09-23T10:17:53.202Z,1.97
2022-09-23T10:18:55.706Z,2.03
2022-09-23T10:19:58.155Z,1.81
2022-09-23T10:21:00.862Z,1.69
2022-09-23T10:22:03.838Z,1.69
2022-09-23T10:23:06.342Z,3.08
2022-09-23T10:24:08.817Z,2.09
2022-09-23T10:25:11.298Z,2.90
2022-09-23T10:26:15.600Z,3.22
2022-09-23T10:27:18.072Z,2.54
2022-09-23T10:28:20.618Z,3.23
2022-09-23T10:29:23.106Z,2.67
2022-09-23T10:30:26.200Z,2.96
2022-09-23T10:31:28.663Z,3.27
2022-09-23T10:32:31.207Z,2.54
2022-09-23T10:33:33.752Z,2.90
2022-09-23T10:34:36.244Z,2.28
2022-09-23T10:35:38.828Z,2.29
2022-09-23T10:36:44.550Z,2.06
2022-09-23T10:37:45.944Z,2.11
2022-09-23T10:38:48.500Z,1.91
2022-09-23T10:39:50.961Z,1.81
2022-09-23T10:40:53.839Z,2.07
2022-09-23T10:41:56.515Z,2.52
2022-09-23T10:42:59.033Z,3.41
2022-09-23T10:44:01.543Z,3.97
2022-09-23T10:45:03.992Z,2.96
2022-09-23T10:46:06.789Z,3.13
2022-09-23T10:47:09.320Z,2.47
2022-09-23T10:48:11.794Z,2.92
2022-09-23T10:49:14.460Z,2.41
2022-09-23T10:50:17.153Z,1.98
2022-09-23T10:51:23.938Z,2.42
2022-09-23T10:52:24.015Z,2.10
2022-09-23T10:53:26.491Z,2.27
2022-09-23T10:54:29.037Z,2.35
2022-09-23T10:55:31.524Z,2.58
2022-09-23T10:56:34.131Z,2.29
2022-09-23T10:57:36.619Z,2.19
2022-09-23T10:58:39.243Z,2.12
2022-09-23T10:59:42.074Z,2.47
2022-09-23T11:00:44.767Z,2.70
2022-09-23T11:01:47.484Z,1.87
2022-09-23T11:02:50.031Z,1.77
2022-09-23T11:03:52.546Z,2.17
2022-09-23T11:04:55.061Z,1.87
2022-09-23T11:05:57.589Z,1.83
2022-09-23T11:07:00.492Z,1.61
2022-09-23T11:08:02.946Z,1.98
2022-09-23T11:09:05.445Z,2.15
2022-09-23T11:10:18.410Z,1.65
2022-09-23T11:11:13.220Z,1.91
2022-09-23T11:12:15.924Z,1.83
2022-09-23T11:13:18.379Z,1.96
2022-09-23T11:14:20.903Z,1.77
2022-09-23T11:15:23.439Z,1.58
2022-09-23T11:16:26.152Z,1.28
2022-09-23T11:17:28.707Z,1.43
2022-09-23T11:18:31.190Z,0.93
2022-09-23T11:19:33.661Z,1.45
2022-09-23T11:20:36.468Z,1.02
2022-09-23T11:21:38.926Z,1.14
2022-09-23T11:22:41.414Z,1.05
2022-09-23T11:23:43.874Z,1.14
2022-09-23T11:24:46.416Z,1.00
2022-09-23T11:25:48.891Z,0.88
2022-09-23T11:26:51.574Z,1.15
2022-09-23T11:27:54.033Z,0.99
2022-09-23T11:28:56.510Z,0.95
2022-09-23T11:29:59.004Z,1.33
2022-09-23T11:31:02.039Z,1.12
2022-09-23T11:32:04.961Z,1.65
2022-09-23T11:33:07.439Z,1.47
2022-09-23T11:34:09.984Z,1.73
2022-09-23T11:35:12.487Z,1.69
2022-09-23T11:36:15.304Z,1.75
2022-09-23T11:37:17.780Z,1.50
2022-09-23T11:38:20.234Z,1.05
2022-09-23T11:39:22.716Z,1.05
2022-09-23T11:40:25.382Z,1.13
2022-09-23T11:41:28.662Z,1.00
2022-09-23T11:42:31.216Z,1.29
2022-09-23T11:43:33.724Z,1.64
2022-09-23T11:44:36.180Z,1.33
2022-09-23T11:45:38.726Z,1.35
2022-09-23T11:46:41.523Z,2.64
2022-09-23T11:47:43.995Z,2.35
2022-09-23T11:48:46.481Z,2.10
2022-09-23T11:49:48.983Z,1.80
2022-09-23T11:50:51.650Z,1.52
2022-09-23T11:51:54.158Z,1.87
2022-09-23T11:52:56.612Z,1.84
2022-09-23T11:53:59.097Z,1.95
2022-09-23T11:55:04.837Z,1.53
2022-09-23T11:56:06.377Z,1.68
2022-09-23T11:57:08.877Z,0.91
2022-09-23T11:58:22.649Z,1.15
2022-09-23T11:59:15.960Z,1.19
2022-09-23T12:00:19.444Z,0.99
2022-09-23T12:01:30.457Z,0.96
2022-09-23T12:02:30.446Z,1.19
2022-09-23T12:03:41.670Z,0.73
2022-09-23T12:04:35.916Z,2.14
2022-09-23T12:05:39.355Z,1.07
2022-09-23T12:06:42.163Z,2.18
2022-09-23T12:07:44.657Z,0.91
2022-09-23T12:08:47.140Z,1.20
2022-09-23T12:09:58.092Z,1.58
2022-09-23T12:10:54.329Z,1.85
2022-09-23T12:11:56.785Z,2.00
2022-09-23T12:12:59.377Z,1.62
2022-09-23T12:14:01.864Z,1.11
2022-09-23T12:15:04.340Z,1.01
2022-09-23T12:16:07.120Z,1.17
2022-09-23T12:17:09.573Z,1.17
2022-09-23T12:18:12.067Z,1.06
2022-09-23T12:19:14.548Z,1.37
2022-09-23T12:20:17.524Z,1.02
2022-09-23T12:21:45.850Z,1.27
2022-09-23T12:22:25.519Z,1.58
2022-09-23T12:23:28.021Z,0.97
2022-09-23T12:24:30.495Z,0.82
2022-09-23T12:25:33.010Z,1.33
2022-09-23T12:26:35.696Z,1.16
2022-09-23T12:27:38.179Z,1.43
2022-09-23T12:28:40.687Z,0.93
2022-09-23T12:29:43.226Z,1.29
2022-09-23T12:30:46.092Z,0.80
2022-09-23T12:31:48.633Z,1.75
2022-09-23T12:32:51.173Z,1.52
2022-09-23T12:33:53.670Z,1.13
2022-09-23T12:34:56.134Z,0.89
2022-09-23T12:35:58.611Z,1.48
2022-09-23T12:37:01.224Z,1.37
2022-09-23T12:38:03.715Z,1.50
2022-09-23T12:39:06.237Z,1.05
2022-09-23T12:40:09.152Z,0.87
2022-09-23T12:41:11.780Z,1.13
2022-09-23T12:42:14.459Z,0.76
2022-09-23T12:43:16.899Z,1.09
2022-09-23T12:44:19.406Z,1.07
2022-09-23T12:45:21.853Z,1.21
2022-09-23T12:46:24.555Z,1.24
2022-09-23T12:47:27.189Z,1.84
2022-09-23T12:48:29.735Z,1.31
2022-09-23T12:49:32.219Z,1.17
2022-09-23T12:50:34.937Z,1.13
2022-09-23T12:51:37.450Z,1.37
2022-09-23T12:52:39.929Z,0.99
2022-09-23T12:53:42.409Z,1.01
2022-09-23T12:54:44.915Z,1.09
2022-09-23T12:55:47.359Z,0.85
2022-09-23T12:56:50.101Z,1.69
2022-09-23T12:57:52.608Z,1.12
2022-09-23T12:58:55.052Z,1.36
2022-09-23T12:59:57.539Z,1.01
2022-09-23T13:01:00.499Z,0.89
2022-09-23T13:02:03.194Z,1.23
2022-09-23T13:03:05.767Z,1.03
2022-09-23T13:04:08.304Z,1.01
2022-09-23T13:05:11.511Z,1.09
2022-09-23T13:06:14.675Z,1.17
2022-09-23T13:07:17.150Z,1.99
2022-09-23T13:08:19.611Z,0.99
2022-09-23T13:09:22.077Z,0.88
2022-09-23T13:10:24.664Z,1.23
2022-09-23T13:11:27.132Z,1.37
2022-09-23T13:12:29.749Z,1.33
2022-09-23T13:13:32.221Z,1.04
2022-09-23T13:14:34.739Z,1.23
2022-09-23T13:15:37.332Z,1.11
2022-09-23T13:16:40.217Z,0.93
2022-09-23T13:17:42.777Z,1.35
2022-09-23T13:18:45.247Z,1.35
2022-09-23T13:19:47.685Z,0.93
2022-09-23T13:20:50.460Z,1.16
2022-09-23T13:21:52.934Z,1.45
2022-09-23T13:22:55.404Z,0.87
2022-09-23T13:23:57.876Z,0.85
2022-09-23T13:25:00.342Z,1.16
2022-09-23T13:26:02.946Z,1.23
2022-09-23T13:27:05.486Z,1.13
2022-09-23T13:28:07.941Z,1.24
2022-09-23T13:29:10.386Z,1.41
2022-09-23T13:30:13.301Z,1.07
2022-09-23T13:31:15.859Z,1.04
2022-09-23T13:32:18.310Z,1.21
2022-09-23T13:33:20.782Z,1.13
2022-09-23T13:34:23.273Z,1.53
2022-09-23T13:35:25.721Z,0.89
2022-09-23T13:36:28.342Z,1.13
2022-09-23T13:37:30.785Z,2.18
2022-09-23T13:38:33.258Z,0.86
2022-09-23T13:39:35.732Z,1.08
2022-09-23T13:40:38.737Z,1.11
2022-09-23T13:41:41.492Z,1.01
2022-09-23T13:42:43.962Z,0.87
2022-09-23T13:43:46.447Z,0.91
2022-09-23T13:44:48.883Z,0.88
2022-09-23T13:45:51.576Z,0.78
2022-09-23T13:46:54.465Z,1.06
2022-09-23T13:47:57.145Z,0.94
2022-09-23T13:48:59.618Z,0.99
2022-09-23T13:50:02.084Z,1.20
2022-09-23T13:51:04.587Z,1.33
2022-09-23T13:52:07.087Z,1.21
2022-09-23T13:53:09.585Z,1.21
2022-09-23T13:54:12.066Z,1.27